sensor_id;sensor_type;location;lat;lon;timestamp;temperature;humidity
12254;DHT22;6189;52.526;13.390;2022-09-13T00:02:31;17.00;99.90
12254;DHT22;6189;52.526;13.390;2022-09-13T00:05:18;16.90;99.90
12254;DHT22;6189;52.526;13.390;2022-09-13T00:08:04;16.90;99.90
12254;DHT22;6189;52.526;13.390;2022-09-13T00:10:49;16.80;99.90
12254;DHT22;6189;52.526;13.390;2022-09-13T00:13:35;16.80;99.90
12254;DHT22;6189;52.526;13.390;2022-09-13T00:16:22;16.80;99.90
12254;DHT22;6189;52.526;13.390;2022-09-13T00:19:09;16.70;99.90
12254;DHT22;6189;52.526;13.390;2022-09-13T00:21:56;16.70;99.90
12254;DHT22;6189;52.526;13.390;2022-09-13T00:24:41;16.70;99.90
12254;DHT22;6189;52.526;13.390;2022-09-13T00:27:26;16.70;99.90
12254;DHT22;6189;52.526;13.390;2022-09-13T00:30:13;16.70;99.90
12254;DHT22;6189;52.526;13.390;2022-09-13T00:32:58;16.80;99.90
12254;DHT22;6189;52.526;13.390;2022-09-13T00:35:47;16.70;99.90
12254;DHT22;6189;52.526;13.390;2022-09-13T00:38:35;16.70;99.90
12254;DHT22;6189;52.526;13.390;2022-09-13T00:41:22;16.80;99.90
12254;DHT22;6189;52.526;13.390;2022-09-13T00:47:32;16.90;99.90
12254;DHT22;6189;52.526;13.390;2022-09-13T00:50:20;16.80;99.90
12254;DHT22;6189;52.526;13.390;2022-09-13T00:53:09;16.70;99.90
12254;DHT22;6189;52.526;13.390;2022-09-13T00:55:58;16.60;99.90
12254;DHT22;6189;52.526;13.390;2022-09-13T00:58:48;16.60;99.90
12254;DHT22;6189;52.526;13.390;2022-09-13T01:01:39;16.60;99.90
12254;DHT22;6189;52.526;13.390;2022-09-13T01:04:28;16.60;99.90
12254;DHT22;6189;52.526;13.390;2022-09-13T01:07:15;16.60;99.90
12254;DHT22;6189;52.526;13.390;2022-09-13T01:10:03;16.50;99.90
12254;DHT22;6189;52.526;13.390;2022-09-13T01:12:55;16.40;99.90
12254;DHT22;6189;52.526;13.390;2022-09-13T01:15:43;16.40;99.90
12254;DHT22;6189;52.526;13.390;2022-09-13T01:18:29;16.40;99.90
12254;DHT22;6189;52.526;13.390;2022-09-13T01:21:38;16.40;99.90
12254;DHT22;6189;52.526;13.390;2022-09-13T01:31:06;16.40;99.90
12254;DHT22;6189;52.526;13.390;2022-09-13T01:34:02;16.40;99.90
12254;DHT22;6189;52.526;13.390;2022-09-13T01:37:02;16.40;99.90
12254;DHT22;6189;52.526;13.390;2022-09-13T01:40:02;16.40;99.90
12254;DHT22;6189;52.526;13.390;2022-09-13T01:43:02;16.50;99.90
12254;DHT22;6189;52.526;13.390;2022-09-13T01:45:54;16.50;99.90
12254;DHT22;6189;52.526;13.390;2022-09-13T01:48:53;16.50;99.90
12254;DHT22;6189;52.526;13.390;2022-09-13T01:51:44;16.40;99.90
12254;DHT22;6189;52.526;13.390;2022-09-13T01:54:36;16.40;99.90
12254;DHT22;6189;52.526;13.390;2022-09-13T02:01:07;16.30;99.90
12254;DHT22;6189;52.526;13.390;2022-09-13T02:03:59;16.20;99.90
12254;DHT22;6189;52.526;13.390;2022-09-13T02:06:49;16.10;99.90
12254;DHT22;6189;52.526;13.390;2022-09-13T02:09:39;16.10;99.90
12254;DHT22;6189;52.526;13.390;2022-09-13T02:12:27;16.00;99.90
12254;DHT22;6189;52.526;13.390;2022-09-13T02:15:16;16.10;99.90
12254;DHT22;6189;52.526;13.390;2022-09-13T02:18:06;16.10;99.90
12254;DHT22;6189;52.526;13.390;2022-09-13T02:21:01;16.20;99.90
12254;DHT22;6189;52.526;13.390;2022-09-13T02:23:51;16.10;99.90
12254;DHT22;6189;52.526;13.390;2022-09-13T02:26:39;16.10;99.90
12254;DHT22;6189;52.526;13.390;2022-09-13T02:29:27;16.10;99.90
12254;DHT22;6189;52.526;13.390;2022-09-13T02:32:16;16.10;99.90
12254;DHT22;6189;52.526;13.390;2022-09-13T02:35:05;16.20;99.90
12254;DHT22;6189;52.526;13.390;2022-09-13T02:37:59;16.20;99.90
12254;DHT22;6189;52.526;13.390;2022-09-13T02:40:48;16.30;99.90
12254;DHT22;6189;52.526;13.390;2022-09-13T02:43:41;16.30;99.90
12254;DHT22;6189;52.526;13.390;2022-09-13T02:46:39;16.30;99.90
12254;DHT22;6189;52.526;13.390;2022-09-13T02:49:30;16.30;99.90
12254;DHT22;6189;52.526;13.390;2022-09-13T02:52:23;16.40;99.90
12254;DHT22;6189;52.526;13.390;2022-09-13T02:55:18;16.40;99.90
12254;DHT22;6189;52.526;13.390;2022-09-13T02:58:09;16.30;99.90
12254;DHT22;6189;52.526;13.390;2022-09-13T03:00:56;16.30;99.90
12254;DHT22;6189;52.526;13.390;2022-09-13T03:03:42;16.30;99.90
12254;DHT22;6189;52.526;13.390;2022-09-13T03:06:28;16.20;99.90
12254;DHT22;6189;52.526;13.390;2022-09-13T03:09:14;16.30;99.90
12254;DHT22;6189;52.526;13.390;2022-09-13T03:12:23;16.30;99.90
12254;DHT22;6189;52.526;13.390;2022-09-13T03:15:23;16.30;99.90
12254;DHT22;6189;52.526;13.390;2022-09-13T03:18:27;16.30;99.90
12254;DHT22;6189;52.526;13.390;2022-09-13T03:21:28;16.30;99.90
12254;DHT22;6189;52.526;13.390;2022-09-13T03:24:21;16.20;99.90
12254;DHT22;6189;52.526;13.390;2022-09-13T03:27:17;16.30;99.90
12254;DHT22;6189;52.526;13.390;2022-09-13T03:30:05;16.20;99.90
12254;DHT22;6189;52.526;13.390;2022-09-13T03:32:59;16.20;99.90
12254;DHT22;6189;52.526;13.390;2022-09-13T03:35:52;16.10;99.90
12254;DHT22;6189;52.526;13.390;2022-09-13T03:38:42;16.00;99.90
12254;DHT22;6189;52.526;13.390;2022-09-13T03:41:33;16.00;99.90
12254;DHT22;6189;52.526;13.390;2022-09-13T03:44:23;15.90;99.90
12254;DHT22;6189;52.526;13.390;2022-09-13T03:47:10;15.90;99.90
12254;DHT22;6189;52.526;13.390;2022-09-13T03:49:56;15.90;99.90
12254;DHT22;6189;52.526;13.390;2022-09-13T03:52:43;15.90;99.90
12254;DHT22;6189;52.526;13.390;2022-09-13T03:55:31;15.80;99.90
12254;DHT22;6189;52.526;13.390;2022-09-13T03:58:19;15.80;99.90
12254;DHT22;6189;52.526;13.390;2022-09-13T04:01:06;15.70;99.90
12254;DHT22;6189;52.526;13.390;2022-09-13T04:03:53;15.70;99.90
12254;DHT22;6189;52.526;13.390;2022-09-13T04:06:39;15.70;99.90
12254;DHT22;6189;52.526;13.390;2022-09-13T04:09:24;15.70;99.90
12254;DHT22;6189;52.526;13.390;2022-09-13T04:12:10;15.80;99.90
12254;DHT22;6189;52.526;13.390;2022-09-13T04:14:57;15.80;99.90
12254;DHT22;6189;52.526;13.390;2022-09-13T04:17:44;15.80;99.90
12254;DHT22;6189;52.526;13.390;2022-09-13T04:20:29;15.70;99.90
12254;DHT22;6189;52.526;13.390;2022-09-13T04:23:15;15.70;99.90
12254;DHT22;6189;52.526;13.390;2022-09-13T04:26:01;15.70;99.90
12254;DHT22;6189;52.526;13.390;2022-09-13T04:28:46;15.70;99.90
12254;DHT22;6189;52.526;13.390;2022-09-13T04:31:31;15.60;99.90
12254;DHT22;6189;52.526;13.390;2022-09-13T04:34:19;15.60;99.90
12254;DHT22;6189;52.526;13.390;2022-09-13T04:37:07;15.60;99.90
12254;DHT22;6189;52.526;13.390;2022-09-13T04:39:55;15.60;99.90
12254;DHT22;6189;52.526;13.390;2022-09-13T04:42:43;15.60;99.90
12254;DHT22;6189;52.526;13.390;2022-09-13T04:45:29;15.50;99.90
12254;DHT22;6189;52.526;13.390;2022-09-13T04:48:15;15.50;99.90
12254;DHT22;6189;52.526;13.390;2022-09-13T04:51:02;15.50;99.90
12254;DHT22;6189;52.526;13.390;2022-09-13T04:53:51;15.40;99.90
12254;DHT22;6189;52.526;13.390;2022-09-13T04:56:37;15.40;99.90
12254;DHT22;6189;52.526;13.390;2022-09-13T04:59:23;15.30;99.90
12254;DHT22;6189;52.526;13.390;2022-09-13T05:02:08;15.30;99.90
12254;DHT22;6189;52.526;13.390;2022-09-13T05:04:54;15.40;99.90
12254;DHT22;6189;52.526;13.390;2022-09-13T05:07:42;15.30;99.90
12254;DHT22;6189;52.526;13.390;2022-09-13T05:10:27;15.40;99.90
12254;DHT22;6189;52.526;13.390;2022-09-13T05:13:13;15.40;99.90
12254;DHT22;6189;52.526;13.390;2022-09-13T05:16:02;15.40;99.90
12254;DHT22;6189;52.526;13.390;2022-09-13T05:18:49;15.40;99.90
12254;DHT22;6189;52.526;13.390;2022-09-13T05:21:34;15.40;99.90
12254;DHT22;6189;52.526;13.390;2022-09-13T05:24:21;15.50;99.90
12254;DHT22;6189;52.526;13.390;2022-09-13T05:27:06;15.50;99.90
12254;DHT22;6189;52.526;13.390;2022-09-13T05:29:52;15.50;99.90
12254;DHT22;6189;52.526;13.390;2022-09-13T05:32:38;15.60;99.90
12254;DHT22;6189;52.526;13.390;2022-09-13T05:35:23;15.50;99.90
12254;DHT22;6189;52.526;13.390;2022-09-13T05:38:08;15.50;99.90
12254;DHT22;6189;52.526;13.390;2022-09-13T05:40:56;15.50;99.90
12254;DHT22;6189;52.526;13.390;2022-09-13T05:43:42;15.60;99.90
12254;DHT22;6189;52.526;13.390;2022-09-13T05:46:27;15.60;99.90
12254;DHT22;6189;52.526;13.390;2022-09-13T05:49:13;15.70;99.90
12254;DHT22;6189;52.526;13.390;2022-09-13T05:51:59;15.70;99.90
12254;DHT22;6189;52.526;13.390;2022-09-13T05:54:44;15.70;99.90
12254;DHT22;6189;52.526;13.390;2022-09-13T05:57:31;15.70;99.90
12254;DHT22;6189;52.526;13.390;2022-09-13T06:00:17;15.70;99.90
12254;DHT22;6189;52.526;13.390;2022-09-13T06:03:02;15.60;99.90
12254;DHT22;6189;52.526;13.390;2022-09-13T06:05:48;15.60;99.90
12254;DHT22;6189;52.526;13.390;2022-09-13T06:08:35;15.60;99.90
12254;DHT22;6189;52.526;13.390;2022-09-13T06:11:22;15.60;99.90
12254;DHT22;6189;52.526;13.390;2022-09-13T06:14:09;15.60;99.90
12254;DHT22;6189;52.526;13.390;2022-09-13T06:16:55;15.50;99.90
12254;DHT22;6189;52.526;13.390;2022-09-13T06:19:40;15.70;99.90
12254;DHT22;6189;52.526;13.390;2022-09-13T06:22:26;15.80;99.90
12254;DHT22;6189;52.526;13.390;2022-09-13T06:25:16;15.80;99.90
12254;DHT22;6189;52.526;13.390;2022-09-13T06:28:01;15.80;99.90
12254;DHT22;6189;52.526;13.390;2022-09-13T06:30:48;15.90;99.90
12254;DHT22;6189;52.526;13.390;2022-09-13T06:33:35;15.90;99.90
12254;DHT22;6189;52.526;13.390;2022-09-13T06:36:21;15.80;99.90
12254;DHT22;6189;52.526;13.390;2022-09-13T06:39:07;15.80;99.90
12254;DHT22;6189;52.526;13.390;2022-09-13T06:41:52;15.80;99.90
12254;DHT22;6189;52.526;13.390;2022-09-13T06:44:38;15.90;99.90
12254;DHT22;6189;52.526;13.390;2022-09-13T06:47:25;15.90;99.90
12254;DHT22;6189;52.526;13.390;2022-09-13T06:50:10;15.90;99.90
12254;DHT22;6189;52.526;13.390;2022-09-13T06:52:56;15.80;99.90
12254;DHT22;6189;52.526;13.390;2022-09-13T06:55:43;15.80;99.90
12254;DHT22;6189;52.526;13.390;2022-09-13T06:58:29;15.80;99.90
12254;DHT22;6189;52.526;13.390;2022-09-13T07:01:17;15.80;99.90
12254;DHT22;6189;52.526;13.390;2022-09-13T07:04:05;15.90;99.90
12254;DHT22;6189;52.526;13.390;2022-09-13T07:06:51;16.00;99.90
12254;DHT22;6189;52.526;13.390;2022-09-13T07:09:40;16.00;99.90
12254;DHT22;6189;52.526;13.390;2022-09-13T07:12:26;15.90;99.90
12254;DHT22;6189;52.526;13.390;2022-09-13T07:15:12;16.00;99.90
12254;DHT22;6189;52.526;13.390;2022-09-13T07:17:57;16.00;99.90
12254;DHT22;6189;52.526;13.390;2022-09-13T07:20:44;16.00;99.90
12254;DHT22;6189;52.526;13.390;2022-09-13T07:23:31;16.00;99.90
12254;DHT22;6189;52.526;13.390;2022-09-13T07:26:17;16.10;99.90
12254;DHT22;6189;52.526;13.390;2022-09-13T07:29:04;16.10;99.90
12254;DHT22;6189;52.526;13.390;2022-09-13T07:31:51;16.10;99.90
12254;DHT22;6189;52.526;13.390;2022-09-13T07:34:37;16.10;99.90
12254;DHT22;6189;52.526;13.390;2022-09-13T07:37:24;16.20;99.90
12254;DHT22;6189;52.526;13.390;2022-09-13T07:40:10;16.10;99.90
12254;DHT22;6189;52.526;13.390;2022-09-13T07:42:57;16.20;99.90
12254;DHT22;6189;52.526;13.390;2022-09-13T07:45:42;16.20;99.90
12254;DHT22;6189;52.526;13.390;2022-09-13T07:48:29;16.30;99.90
12254;DHT22;6189;52.526;13.390;2022-09-13T07:51:16;16.30;99.90
12254;DHT22;6189;52.526;13.390;2022-09-13T07:54:05;16.30;99.90
12254;DHT22;6189;52.526;13.390;2022-09-13T07:56:51;16.40;99.90
12254;DHT22;6189;52.526;13.390;2022-09-13T07:59:36;16.50;99.90
12254;DHT22;6189;52.526;13.390;2022-09-13T08:02:22;16.50;99.90
12254;DHT22;6189;52.526;13.390;2022-09-13T08:05:08;16.50;99.90
12254;DHT22;6189;52.526;13.390;2022-09-13T08:07:53;16.50;99.90
12254;DHT22;6189;52.526;13.390;2022-09-13T08:10:40;16.60;99.90
12254;DHT22;6189;52.526;13.390;2022-09-13T08:13:26;16.70;99.90
12254;DHT22;6189;52.526;13.390;2022-09-13T08:16:13;16.80;99.90
12254;DHT22;6189;52.526;13.390;2022-09-13T08:19:02;16.80;99.90
12254;DHT22;6189;52.526;13.390;2022-09-13T08:21:48;16.80;99.90
12254;DHT22;6189;52.526;13.390;2022-09-13T08:24:35;16.90;99.90
12254;DHT22;6189;52.526;13.390;2022-09-13T08:27:22;17.00;99.90
12254;DHT22;6189;52.526;13.390;2022-09-13T08:30:08;17.00;99.90
12254;DHT22;6189;52.526;13.390;2022-09-13T08:32:54;17.00;99.90
12254;DHT22;6189;52.526;13.390;2022-09-13T08:35:40;17.00;99.90
12254;DHT22;6189;52.526;13.390;2022-09-13T08:38:25;17.00;99.90
12254;DHT22;6189;52.526;13.390;2022-09-13T08:41:31;17.00;99.90
12254;DHT22;6189;52.526;13.390;2022-09-13T08:44:26;17.10;99.90
12254;DHT22;6189;52.526;13.390;2022-09-13T08:47:39;17.20;99.90
12254;DHT22;6189;52.526;13.390;2022-09-13T08:50:27;17.20;99.90
12254;DHT22;6189;52.526;13.390;2022-09-13T08:53:19;17.30;99.90
12254;DHT22;6189;52.526;13.390;2022-09-13T08:56:09;17.30;99.90
12254;DHT22;6189;52.526;13.390;2022-09-13T08:59:15;17.30;99.90
12254;DHT22;6189;52.526;13.390;2022-09-13T09:02:19;17.40;99.90
12254;DHT22;6189;52.526;13.390;2022-09-13T09:05:15;17.50;99.90
12254;DHT22;6189;52.526;13.390;2022-09-13T09:08:03;17.50;99.90
12254;DHT22;6189;52.526;13.390;2022-09-13T09:10:52;17.60;99.90
12254;DHT22;6189;52.526;13.390;2022-09-13T09:13:47;17.70;99.90
12254;DHT22;6189;52.526;13.390;2022-09-13T09:16:39;17.80;99.90
12254;DHT22;6189;52.526;13.390;2022-09-13T09:19:31;17.90;99.90
12254;DHT22;6189;52.526;13.390;2022-09-13T09:22:20;18.10;99.90
12254;DHT22;6189;52.526;13.390;2022-09-13T09:25:09;18.20;99.90
12254;DHT22;6189;52.526;13.390;2022-09-13T09:27:57;18.50;99.90
12254;DHT22;6189;52.526;13.390;2022-09-13T09:30:50;18.60;99.90
12254;DHT22;6189;52.526;13.390;2022-09-13T09:33:56;18.70;99.90
12254;DHT22;6189;52.526;13.390;2022-09-13T09:36:49;18.70;99.90
12254;DHT22;6189;52.526;13.390;2022-09-13T09:39:37;19.00;99.90
12254;DHT22;6189;52.526;13.390;2022-09-13T09:42:25;19.50;99.90
12254;DHT22;6189;52.526;13.390;2022-09-13T09:45:24;19.90;99.90
12254;DHT22;6189;52.526;13.390;2022-09-13T09:48:15;20.30;99.90
12254;DHT22;6189;52.526;13.390;2022-09-13T09:51:04;20.30;99.90
12254;DHT22;6189;52.526;13.390;2022-09-13T09:53:58;20.40;99.90
12254;DHT22;6189;52.526;13.390;2022-09-13T09:56:51;20.30;99.90
12254;DHT22;6189;52.526;13.390;2022-09-13T09:59:37;20.10;99.90
12254;DHT22;6189;52.526;13.390;2022-09-13T10:02:22;20.00;99.90
12254;DHT22;6189;52.526;13.390;2022-09-13T10:05:08;20.00;99.90
12254;DHT22;6189;52.526;13.390;2022-09-13T10:08:00;20.30;99.90
12254;DHT22;6189;52.526;13.390;2022-09-13T10:10:53;20.80;99.90
12254;DHT22;6189;52.526;13.390;2022-09-13T10:13:56;21.10;99.90
12254;DHT22;6189;52.526;13.390;2022-09-13T10:16:43;21.10;99.90
12254;DHT22;6189;52.526;13.390;2022-09-13T10:19:29;21.00;99.90
12254;DHT22;6189;52.526;13.390;2022-09-13T10:22:15;21.00;99.90
12254;DHT22;6189;52.526;13.390;2022-09-13T10:25:13;21.10;99.90
12254;DHT22;6189;52.526;13.390;2022-09-13T10:28:00;21.20;99.90
12254;DHT22;6189;52.526;13.390;2022-09-13T10:30:48;21.00;99.90
12254;DHT22;6189;52.526;13.390;2022-09-13T10:33:42;20.90;99.90
12254;DHT22;6189;52.526;13.390;2022-09-13T10:36:31;20.80;99.90
12254;DHT22;6189;52.526;13.390;2022-09-13T10:39:19;20.80;99.90
12254;DHT22;6189;52.526;13.390;2022-09-13T10:42:06;20.70;99.90
12254;DHT22;6189;52.526;13.390;2022-09-13T10:44:56;20.70;99.90
12254;DHT22;6189;52.526;13.390;2022-09-13T10:47:44;20.60;99.90
12254;DHT22;6189;52.526;13.390;2022-09-13T10:50:31;20.60;99.90
12254;DHT22;6189;52.526;13.390;2022-09-13T10:53:32;20.60;99.90
12254;DHT22;6189;52.526;13.390;2022-09-13T10:56:20;20.60;99.90
12254;DHT22;6189;52.526;13.390;2022-09-13T10:59:20;20.60;99.90
12254;DHT22;6189;52.526;13.390;2022-09-13T11:02:25;20.50;99.90
12254;DHT22;6189;52.526;13.390;2022-09-13T11:05:20;20.40;99.90
12254;DHT22;6189;52.526;13.390;2022-09-13T11:08:26;20.30;99.90
12254;DHT22;6189;52.526;13.390;2022-09-13T11:11:21;20.30;99.90
12254;DHT22;6189;52.526;13.390;2022-09-13T11:14:18;20.20;99.90
12254;DHT22;6189;52.526;13.390;2022-09-13T11:17:19;20.20;99.90
12254;DHT22;6189;52.526;13.390;2022-09-13T11:20:19;20.20;99.90
12254;DHT22;6189;52.526;13.390;2022-09-13T11:23:33;20.20;99.90
12254;DHT22;6189;52.526;13.390;2022-09-13T11:26:33;20.20;99.90
12254;DHT22;6189;52.526;13.390;2022-09-13T11:29:30;20.10;99.90
12254;DHT22;6189;52.526;13.390;2022-09-13T11:32:31;20.10;99.90
12254;DHT22;6189;52.526;13.390;2022-09-13T11:35:33;20.10;99.90
12254;DHT22;6189;52.526;13.390;2022-09-13T11:38:34;20.10;99.90
12254;DHT22;6189;52.526;13.390;2022-09-13T11:41:28;20.10;99.90
12254;DHT22;6189;52.526;13.390;2022-09-13T11:44:31;20.10;99.90
12254;DHT22;6189;52.526;13.390;2022-09-13T11:47:31;20.00;99.90
12254;DHT22;6189;52.526;13.390;2022-09-13T11:50:39;20.10;99.90
12254;DHT22;6189;52.526;13.390;2022-09-13T11:53:45;20.00;99.90
12254;DHT22;6189;52.526;13.390;2022-09-13T11:56:36;19.90;99.90
12254;DHT22;6189;52.526;13.390;2022-09-13T11:59:32;19.90;99.90
12254;DHT22;6189;52.526;13.390;2022-09-13T12:02:31;19.90;99.90
12254;DHT22;6189;52.526;13.390;2022-09-13T12:05:23;19.90;99.90
12254;DHT22;6189;52.526;13.390;2022-09-13T12:08:15;19.90;99.90
12254;DHT22;6189;52.526;13.390;2022-09-13T12:11:05;19.90;99.90
12254;DHT22;6189;52.526;13.390;2022-09-13T12:13:55;19.80;99.90
12254;DHT22;6189;52.526;13.390;2022-09-13T12:16:43;19.70;99.90
12254;DHT22;6189;52.526;13.390;2022-09-13T12:19:38;19.70;99.90
12254;DHT22;6189;52.526;13.390;2022-09-13T12:22:28;19.70;99.90
12254;DHT22;6189;52.526;13.390;2022-09-13T12:25:21;19.70;99.90
12254;DHT22;6189;52.526;13.390;2022-09-13T12:28:12;19.60;99.90
12254;DHT22;6189;52.526;13.390;2022-09-13T12:31:05;19.60;99.90
12254;DHT22;6189;52.526;13.390;2022-09-13T12:33:52;19.60;99.90
12254;DHT22;6189;52.526;13.390;2022-09-13T12:37:03;19.50;99.90
12254;DHT22;6189;52.526;13.390;2022-09-13T12:40:04;19.40;99.90
12254;DHT22;6189;52.526;13.390;2022-09-13T12:43:15;19.50;99.90
12254;DHT22;6189;52.526;13.390;2022-09-13T12:49:39;19.50;99.90
12254;DHT22;6189;52.526;13.390;2022-09-13T12:52:35;19.50;99.90
12254;DHT22;6189;52.526;13.390;2022-09-13T12:55:47;19.50;99.90
12254;DHT22;6189;52.526;13.390;2022-09-13T12:58:55;19.50;99.90
12254;DHT22;6189;52.526;13.390;2022-09-13T13:01:45;19.50;99.90
12254;DHT22;6189;52.526;13.390;2022-09-13T13:04:33;19.50;99.90
12254;DHT22;6189;52.526;13.390;2022-09-13T13:07:20;19.50;99.90
12254;DHT22;6189;52.526;13.390;2022-09-13T13:10:23;19.50;99.90
12254;DHT22;6189;52.526;13.390;2022-09-13T13:13:12;19.60;99.90
12254;DHT22;6189;52.526;13.390;2022-09-13T13:16:05;19.50;99.90
12254;DHT22;6189;52.526;13.390;2022-09-13T13:19:26;19.50;99.90
12254;DHT22;6189;52.526;13.390;2022-09-13T13:22:50;19.60;99.90
12254;DHT22;6189;52.526;13.390;2022-09-13T13:25:37;19.60;99.90
12254;DHT22;6189;52.526;13.390;2022-09-13T13:28:48;19.60;99.90
12254;DHT22;6189;52.526;13.390;2022-09-13T13:31:37;19.50;99.90
12254;DHT22;6189;52.526;13.390;2022-09-13T13:34:49;19.40;99.90
12254;DHT22;6189;52.526;13.390;2022-09-13T13:37:35;19.40;99.90
12254;DHT22;6189;52.526;13.390;2022-09-13T13:40:24;19.50;99.90
12254;DHT22;6189;52.526;13.390;2022-09-13T13:43:28;19.50;99.90
12254;DHT22;6189;52.526;13.390;2022-09-13T13:46:29;19.60;99.90
12254;DHT22;6189;52.526;13.390;2022-09-13T13:49:42;19.70;99.90
12254;DHT22;6189;52.526;13.390;2022-09-13T13:52:37;19.80;99.90
12254;DHT22;6189;52.526;13.390;2022-09-13T13:55:30;19.90;99.90
12254;DHT22;6189;52.526;13.390;2022-09-13T13:58:41;20.00;99.90
12254;DHT22;6189;52.526;13.390;2022-09-13T14:01:32;20.10;99.90
12254;DHT22;6189;52.526;13.390;2022-09-13T14:11:05;20.20;99.90
12254;DHT22;6189;52.526;13.390;2022-09-13T14:14:01;20.20;99.90
12254;DHT22;6189;52.526;13.390;2022-09-13T14:16:57;20.30;99.90
12254;DHT22;6189;52.526;13.390;2022-09-13T14:19:46;20.30;99.90
12254;DHT22;6189;52.526;13.390;2022-09-13T14:22:34;20.30;99.90
12254;DHT22;6189;52.526;13.390;2022-09-13T14:25:23;20.40;99.90
12254;DHT22;6189;52.526;13.390;2022-09-13T14:28:14;20.40;99.90
12254;DHT22;6189;52.526;13.390;2022-09-13T14:31:01;20.50;99.90
12254;DHT22;6189;52.526;13.390;2022-09-13T14:33:47;20.50;99.90
12254;DHT22;6189;52.526;13.390;2022-09-13T14:36:32;20.50;99.90
12254;DHT22;6189;52.526;13.390;2022-09-13T14:39:19;20.50;99.90
12254;DHT22;6189;52.526;13.390;2022-09-13T14:42:12;20.50;99.90
12254;DHT22;6189;52.526;13.390;2022-09-13T14:45:01;20.50;99.90
12254;DHT22;6189;52.526;13.390;2022-09-13T14:47:51;20.50;99.90
12254;DHT22;6189;52.526;13.390;2022-09-13T14:50:40;20.40;99.90
12254;DHT22;6189;52.526;13.390;2022-09-13T14:53:29;20.40;99.90
12254;DHT22;6189;52.526;13.390;2022-09-13T14:56:21;20.40;99.90
12254;DHT22;6189;52.526;13.390;2022-09-13T14:59:13;20.50;99.90
12254;DHT22;6189;52.526;13.390;2022-09-13T15:02:06;20.50;99.90
12254;DHT22;6189;52.526;13.390;2022-09-13T15:04:59;20.50;99.90
12254;DHT22;6189;52.526;13.390;2022-09-13T15:07:45;20.60;99.90
12254;DHT22;6189;52.526;13.390;2022-09-13T15:10:32;20.60;99.90
12254;DHT22;6189;52.526;13.390;2022-09-13T15:13:19;20.50;99.90
12254;DHT22;6189;52.526;13.390;2022-09-13T15:16:24;20.60;99.90
12254;DHT22;6189;52.526;13.390;2022-09-13T15:19:36;20.60;99.90
12254;DHT22;6189;52.526;13.390;2022-09-13T15:22:23;20.60;99.90
12254;DHT22;6189;52.526;13.390;2022-09-13T15:25:19;20.60;99.90
12254;DHT22;6189;52.526;13.390;2022-09-13T15:28:20;20.70;99.90
12254;DHT22;6189;52.526;13.390;2022-09-13T15:31:06;20.60;99.90
12254;DHT22;6189;52.526;13.390;2022-09-13T15:34:10;20.60;99.90
12254;DHT22;6189;52.526;13.390;2022-09-13T15:37:10;20.60;99.90
12254;DHT22;6189;52.526;13.390;2022-09-13T15:40:10;20.60;99.90
12254;DHT22;6189;52.526;13.390;2022-09-13T15:42:57;20.50;99.90
12254;DHT22;6189;52.526;13.390;2022-09-13T15:45:43;20.50;99.90
12254;DHT22;6189;52.526;13.390;2022-09-13T15:48:30;20.50;99.90
12254;DHT22;6189;52.526;13.390;2022-09-13T15:51:16;20.50;99.90
12254;DHT22;6189;52.526;13.390;2022-09-13T15:54:07;20.50;99.90
12254;DHT22;6189;52.526;13.390;2022-09-13T15:56:55;20.50;99.90
12254;DHT22;6189;52.526;13.390;2022-09-13T15:59:40;20.40;99.90
12254;DHT22;6189;52.526;13.390;2022-09-13T16:02:27;20.40;99.90
12254;DHT22;6189;52.526;13.390;2022-09-13T16:05:19;20.40;99.90
12254;DHT22;6189;52.526;13.390;2022-09-13T16:08:07;20.40;99.90
12254;DHT22;6189;52.526;13.390;2022-09-13T16:10:55;20.30;99.90
12254;DHT22;6189;52.526;13.390;2022-09-13T16:13:41;20.30;99.90
12254;DHT22;6189;52.526;13.390;2022-09-13T16:16:27;20.20;99.90
12254;DHT22;6189;52.526;13.390;2022-09-13T16:19:14;20.20;99.90
12254;DHT22;6189;52.526;13.390;2022-09-13T16:22:00;20.20;99.90
12254;DHT22;6189;52.526;13.390;2022-09-13T16:24:46;20.20;99.90
12254;DHT22;6189;52.526;13.390;2022-09-13T16:27:32;20.20;99.90
12254;DHT22;6189;52.526;13.390;2022-09-13T16:30:19;20.20;99.90
12254;DHT22;6189;52.526;13.390;2022-09-13T16:33:06;20.20;99.90
12254;DHT22;6189;52.526;13.390;2022-09-13T16:35:51;20.20;99.90
12254;DHT22;6189;52.526;13.390;2022-09-13T16:38:37;20.20;99.90
12254;DHT22;6189;52.526;13.390;2022-09-13T16:41:23;20.20;99.90
12254;DHT22;6189;52.526;13.390;2022-09-13T16:44:11;20.10;99.90
12254;DHT22;6189;52.526;13.390;2022-09-13T16:46:57;20.10;99.90
12254;DHT22;6189;52.526;13.390;2022-09-13T16:49:42;20.10;99.90
12254;DHT22;6189;52.526;13.390;2022-09-13T16:52:28;20.10;99.90
12254;DHT22;6189;52.526;13.390;2022-09-13T16:55:14;20.00;99.90
12254;DHT22;6189;52.526;13.390;2022-09-13T16:58:00;20.00;99.90
12254;DHT22;6189;52.526;13.390;2022-09-13T17:00:46;20.00;99.90
12254;DHT22;6189;52.526;13.390;2022-09-13T17:03:32;20.00;99.90
12254;DHT22;6189;52.526;13.390;2022-09-13T17:06:20;19.90;99.90
12254;DHT22;6189;52.526;13.390;2022-09-13T17:09:06;19.90;99.90
12254;DHT22;6189;52.526;13.390;2022-09-13T17:11:52;19.80;99.90
12254;DHT22;6189;52.526;13.390;2022-09-13T17:14:39;19.80;99.90
12254;DHT22;6189;52.526;13.390;2022-09-13T17:17:27;19.80;99.90
12254;DHT22;6189;52.526;13.390;2022-09-13T17:20:17;19.80;99.90
12254;DHT22;6189;52.526;13.390;2022-09-13T17:23:02;19.80;99.90
12254;DHT22;6189;52.526;13.390;2022-09-13T17:25:48;19.80;99.90
12254;DHT22;6189;52.526;13.390;2022-09-13T17:28:34;19.70;99.90
12254;DHT22;6189;52.526;13.390;2022-09-13T17:31:19;19.70;99.90
12254;DHT22;6189;52.526;13.390;2022-09-13T17:34:06;19.70;99.90
12254;DHT22;6189;52.526;13.390;2022-09-13T17:36:52;19.70;99.90
12254;DHT22;6189;52.526;13.390;2022-09-13T17:39:37;19.60;99.90
12254;DHT22;6189;52.526;13.390;2022-09-13T17:42:23;19.60;99.90
12254;DHT22;6189;52.526;13.390;2022-09-13T17:45:09;19.60;99.90
12254;DHT22;6189;52.526;13.390;2022-09-13T17:47:55;19.60;99.90
12254;DHT22;6189;52.526;13.390;2022-09-13T17:50:43;19.50;99.90
12254;DHT22;6189;52.526;13.390;2022-09-13T17:53:29;19.50;99.90
12254;DHT22;6189;52.526;13.390;2022-09-13T17:56:18;19.50;99.90
12254;DHT22;6189;52.526;13.390;2022-09-13T17:59:06;19.50;99.90
12254;DHT22;6189;52.526;13.390;2022-09-13T18:01:53;19.40;99.90
12254;DHT22;6189;52.526;13.390;2022-09-13T18:04:39;19.50;99.90
12254;DHT22;6189;52.526;13.390;2022-09-13T18:07:26;19.40;99.90
12254;DHT22;6189;52.526;13.390;2022-09-13T18:10:11;19.40;99.90
12254;DHT22;6189;52.526;13.390;2022-09-13T18:12:57;19.40;99.90
12254;DHT22;6189;52.526;13.390;2022-09-13T18:15:42;19.40;99.90
12254;DHT22;6189;52.526;13.390;2022-09-13T18:18:29;19.40;99.90
12254;DHT22;6189;52.526;13.390;2022-09-13T18:21:16;19.40;99.90